sensor_id;sensor_type;location;lat;lon;timestamp;P1;durP1;ratioP1;P2;durP2;ratioP2
71937;SDS011;59810;48.800;9.086;2022-11-20T00:01:45;16.83;;;7.40;;
71937;SDS011;59810;48.800;9.086;2022-11-20T00:04:15;16.53;;;6.40;;
71937;SDS011;59810;48.800;9.086;2022-11-20T00:06:42;14.73;;;5.95;;
71937;SDS011;59810;48.800;9.086;2022-11-20T00:09:09;13.50;;;5.77;;
71937;SDS011;59810;48.800;9.086;2022-11-20T00:11:35;15.98;;;6.57;;
71937;SDS011;59810;48.800;9.086;2022-11-20T00:14:01;12.20;;;5.90;;
71937;SDS011;59810;48.800;9.086;2022-11-20T00:16:27;13.95;;;5.80;;
71937;SDS011;59810;48.800;9.086;2022-11-20T00:18:55;11.63;;;5.10;;
71937;SDS011;59810;48.800;9.086;2022-11-20T00:21:24;13.90;;;5.97;;
71937;SDS011;59810;48.800;9.086;2022-11-20T00:23:51;15.13;;;6.22;;
71937;SDS011;59810;48.800;9.086;2022-11-20T00:26:19;14.15;;;6.47;;
71937;SDS011;59810;48.800;9.086;2022-11-20T00:28:50;17.47;;;6.50;;
71937;SDS011;59810;48.800;9.086;2022-11-20T00:31:17;14.70;;;6.32;;
71937;SDS011;59810;48.800;9.086;2022-11-20T00:33:43;14.38;;;6.22;;
71937;SDS011;59810;48.800;9.086;2022-11-20T00:36:10;16.83;;;6.97;;
71937;SDS011;59810;48.800;9.086;2022-11-20T00:38:40;14.20;;;6.03;;
71937;SDS011;59810;48.800;9.086;2022-11-20T00:41:07;11.00;;;5.25;;
71937;SDS011;59810;48.800;9.086;2022-11-20T00:43:33;11.00;;;4.70;;
71937;SDS011;59810;48.800;9.086;2022-11-20T00:46:03;7.57;;;2.83;;
71937;SDS011;59810;48.800;9.086;2022-11-20T00:48:33;7.15;;;2.38;;
71937;SDS011;59810;48.800;9.086;2022-11-20T00:51:01;6.53;;;1.67;;
71937;SDS011;59810;48.800;9.086;2022-11-20T00:53:27;5.20;;;1.57;;
71937;SDS011;59810;48.800;9.086;2022-11-20T00:55:59;6.28;;;1.80;;
71937;SDS011;59810;48.800;9.086;2022-11-20T00:58:31;5.10;;;1.48;;
71937;SDS011;59810;48.800;9.086;2022-11-20T01:01:01;5.57;;;1.30;;
71937;SDS011;59810;48.800;9.086;2022-11-20T01:03:32;5.32;;;2.22;;
71937;SDS011;59810;48.800;9.086;2022-11-20T01:05:59;4.78;;;1.50;;
71937;SDS011;59810;48.800;9.086;2022-11-20T01:08:31;5.03;;;1.67;;
71937;SDS011;59810;48.800;9.086;2022-11-20T01:11:03;4.85;;;1.77;;
71937;SDS011;59810;48.800;9.086;2022-11-20T01:13:33;5.90;;;1.70;;
71937;SDS011;59810;48.800;9.086;2022-11-20T01:16:03;6.18;;;1.40;;
71937;SDS011;59810;48.800;9.086;2022-11-20T01:18:41;3.50;;;1.20;;
71937;SDS011;59810;48.800;9.086;2022-11-20T01:21:09;6.18;;;1.55;;
71937;SDS011;59810;48.800;9.086;2022-11-20T01:23:40;4.35;;;1.55;;
71937;SDS011;59810;48.800;9.086;2022-11-20T01:26:07;9.77;;;1.67;;
71937;SDS011;59810;48.800;9.086;2022-11-20T01:28:35;6.10;;;1.25;;
71937;SDS011;59810;48.800;9.086;2022-11-20T01:31:01;4.53;;;1.30;;
71937;SDS011;59810;48.800;9.086;2022-11-20T01:33:34;4.50;;;1.15;;
71937;SDS011;59810;48.800;9.086;2022-11-20T01:36:03;5.20;;;1.37;;
71937;SDS011;59810;48.800;9.086;2022-11-20T01:38:30;3.05;;;1.15;;
71937;SDS011;59810;48.800;9.086;2022-11-20T01:40:55;5.67;;;1.23;;
71937;SDS011;59810;48.800;9.086;2022-11-20T01:43:23;4.93;;;1.33;;
71937;SDS011;59810;48.800;9.086;2022-11-20T01:48:35;3.85;;;1.10;;
71937;SDS011;59810;48.800;9.086;2022-11-20T01:51:21;3.67;;;0.93;;
71937;SDS011;59810;48.800;9.086;2022-11-20T01:53:53;4.73;;;1.10;;
71937;SDS011;59810;48.800;9.086;2022-11-20T01:56:24;5.43;;;1.08;;
71937;SDS011;59810;48.800;9.086;2022-11-20T01:58:53;4.93;;;1.13;;
71937;SDS011;59810;48.800;9.086;2022-11-20T02:01:21;4.00;;;1.30;;
71937;SDS011;59810;48.800;9.086;2022-11-20T02:03:47;4.70;;;1.23;;
71937;SDS011;59810;48.800;9.086;2022-11-20T02:06:19;6.80;;;1.13;;
71937;SDS011;59810;48.800;9.086;2022-11-20T02:08:50;4.20;;;1.15;;
71937;SDS011;59810;48.800;9.086;2022-11-20T02:11:16;5.82;;;1.40;;
71937;SDS011;59810;48.800;9.086;2022-11-20T02:13:41;3.67;;;1.10;;
71937;SDS011;59810;48.800;9.086;2022-11-20T02:16:12;3.55;;;1.13;;
71937;SDS011;59810;48.800;9.086;2022-11-20T02:18:49;3.37;;;1.03;;
71937;SDS011;59810;48.800;9.086;2022-11-20T02:21:24;5.35;;;1.60;;
71937;SDS011;59810;48.800;9.086;2022-11-20T02:32:34;6.00;;;1.30;;
71937;SDS011;59810;48.800;9.086;2022-11-20T02:35:39;3.83;;;1.08;;
71937;SDS011;59810;48.800;9.086;2022-11-20T02:37:59;6.18;;;1.40;;
71937;SDS011;59810;48.800;9.086;2022-11-20T02:40:31;4.32;;;1.20;;
71937;SDS011;59810;48.800;9.086;2022-11-20T02:42:57;4.00;;;1.23;;
71937;SDS011;59810;48.800;9.086;2022-11-20T02:45:22;4.83;;;1.33;;
71937;SDS011;59810;48.800;9.086;2022-11-20T02:47:49;5.25;;;1.55;;
71937;SDS011;59810;48.800;9.086;2022-11-20T02:50:15;4.80;;;1.07;;
71937;SDS011;59810;48.800;9.086;2022-11-20T02:52:41;6.70;;;1.55;;
71937;SDS011;59810;48.800;9.086;2022-11-20T02:55:09;4.20;;;1.25;;
71937;SDS011;59810;48.800;9.086;2022-11-20T02:57:35;5.32;;;1.30;;
71937;SDS011;59810;48.800;9.086;2022-11-20T03:00:03;4.70;;;1.40;;
71937;SDS011;59810;48.800;9.086;2022-11-20T03:02:32;4.35;;;1.20;;
71937;SDS011;59810;48.800;9.086;2022-11-20T03:05:00;4.00;;;1.20;;
71937;SDS011;59810;48.800;9.086;2022-11-20T03:07:26;6.70;;;1.80;;
71937;SDS011;59810;48.800;9.086;2022-11-20T03:09:51;5.60;;;1.50;;
71937;SDS011;59810;48.800;9.086;2022-11-20T03:12:17;5.40;;;1.60;;
71937;SDS011;59810;48.800;9.086;2022-11-20T03:14:42;4.27;;;1.40;;
71937;SDS011;59810;48.800;9.086;2022-11-20T03:17:07;4.83;;;1.70;;
71937;SDS011;59810;48.800;9.086;2022-11-20T03:19:33;5.00;;;1.40;;
71937;SDS011;59810;48.800;9.086;2022-11-20T03:21:59;5.75;;;1.80;;
71937;SDS011;59810;48.800;9.086;2022-11-20T03:24:25;5.32;;;1.55;;
71937;SDS011;59810;48.800;9.086;2022-11-20T03:26:51;5.32;;;1.67;;
71937;SDS011;59810;48.800;9.086;2022-11-20T03:29:16;5.33;;;1.70;;
71937;SDS011;59810;48.800;9.086;2022-11-20T03:31:41;5.93;;;1.60;;
71937;SDS011;59810;48.800;9.086;2022-11-20T03:34:08;5.50;;;1.73;;
71937;SDS011;59810;48.800;9.086;2022-11-20T03:36:34;4.40;;;1.50;;
71937;SDS011;59810;48.800;9.086;2022-11-20T03:39:02;5.68;;;1.90;;
71937;SDS011;59810;48.800;9.086;2022-11-20T03:41:30;5.93;;;2.03;;
71937;SDS011;59810;48.800;9.086;2022-11-20T03:43:57;4.63;;;1.45;;
71937;SDS011;59810;48.800;9.086;2022-11-20T03:46:25;5.50;;;1.63;;
71937;SDS011;59810;48.800;9.086;2022-11-20T03:48:51;5.97;;;2.13;;
71937;SDS011;59810;48.800;9.086;2022-11-20T03:51:18;6.10;;;1.70;;
71937;SDS011;59810;48.800;9.086;2022-11-20T03:53:45;5.18;;;1.70;;
71937;SDS011;59810;48.800;9.086;2022-11-20T03:56:13;5.07;;;2.00;;
71937;SDS011;59810;48.800;9.086;2022-11-20T03:58:42;7.10;;;1.80;;
71937;SDS011;59810;48.800;9.086;2022-11-20T04:01:09;6.50;;;2.17;;
71937;SDS011;59810;48.800;9.086;2022-11-20T04:03:37;5.53;;;1.60;;
71937;SDS011;59810;48.800;9.086;2022-11-20T04:06:11;6.35;;;1.73;;
71937;SDS011;59810;48.800;9.086;2022-11-20T04:08:41;6.90;;;2.03;;
71937;SDS011;59810;48.800;9.086;2022-11-20T04:13:45;5.63;;;2.00;;
71937;SDS011;59810;48.800;9.086;2022-11-20T04:16:12;5.60;;;1.35;;
71937;SDS011;59810;48.800;9.086;2022-11-20T04:18:38;5.65;;;1.92;;
71937;SDS011;59810;48.800;9.086;2022-11-20T04:21:03;5.83;;;2.07;;
71937;SDS011;59810;48.800;9.086;2022-11-20T04:23:30;4.90;;;1.80;;
71937;SDS011;59810;48.800;9.086;2022-11-20T04:26:00;5.63;;;1.57;;
71937;SDS011;59810;48.800;9.086;2022-11-20T04:28:33;5.15;;;1.85;;
71937;SDS011;59810;48.800;9.086;2022-11-20T04:31:05;5.65;;;1.42;;
71937;SDS011;59810;48.800;9.086;2022-11-20T04:33:33;4.60;;;1.48;;
71937;SDS011;59810;48.800;9.086;2022-11-20T04:36:00;4.60;;;1.47;;
71937;SDS011;59810;48.800;9.086;2022-11-20T04:38:30;5.05;;;1.55;;
71937;SDS011;59810;48.800;9.086;2022-11-20T04:41:00;5.20;;;1.60;;
71937;SDS011;59810;48.800;9.086;2022-11-20T04:43:27;5.85;;;1.50;;
71937;SDS011;59810;48.800;9.086;2022-11-20T04:45:53;4.43;;;1.47;;
71937;SDS011;59810;48.800;9.086;2022-11-20T04:48:18;5.93;;;1.50;;
71937;SDS011;59810;48.800;9.086;2022-11-20T04:50:44;4.23;;;1.40;;
71937;SDS011;59810;48.800;9.086;2022-11-20T04:53:11;4.27;;;1.40;;
71937;SDS011;59810;48.800;9.086;2022-11-20T04:55:37;5.10;;;1.70;;
71937;SDS011;59810;48.800;9.086;2022-11-20T04:58:02;5.60;;;1.80;;
71937;SDS011;59810;48.800;9.086;2022-11-20T05:00:27;5.93;;;1.60;;
71937;SDS011;59810;48.800;9.086;2022-11-20T05:02:55;5.47;;;1.60;;
71937;SDS011;59810;48.800;9.086;2022-11-20T05:05:20;5.47;;;1.30;;
71937;SDS011;59810;48.800;9.086;2022-11-20T05:07:46;5.37;;;1.60;;
71937;SDS011;59810;48.800;9.086;2022-11-20T05:10:11;5.40;;;1.55;;
71937;SDS011;59810;48.800;9.086;2022-11-20T05:12:36;5.57;;;1.67;;
71937;SDS011;59810;48.800;9.086;2022-11-20T05:15:02;6.13;;;1.67;;
71937;SDS011;59810;48.800;9.086;2022-11-20T05:17:32;4.68;;;1.38;;
71937;SDS011;59810;48.800;9.086;2022-11-20T05:19:57;4.47;;;1.63;;
71937;SDS011;59810;48.800;9.086;2022-11-20T05:22:22;4.90;;;1.53;;
71937;SDS011;59810;48.800;9.086;2022-11-20T05:24:48;5.07;;;1.60;;
71937;SDS011;59810;48.800;9.086;2022-11-20T05:27:13;4.63;;;1.33;;
71937;SDS011;59810;48.800;9.086;2022-11-20T05:29:39;4.30;;;1.57;;
71937;SDS011;59810;48.800;9.086;2022-11-20T05:32:04;4.47;;;1.60;;
71937;SDS011;59810;48.800;9.086;2022-11-20T05:34:32;5.95;;;1.60;;
71937;SDS011;59810;48.800;9.086;2022-11-20T05:36:57;5.78;;;1.80;;
71937;SDS011;59810;48.800;9.086;2022-11-20T05:39:25;5.30;;;1.60;;
71937;SDS011;59810;48.800;9.086;2022-11-20T05:41:50;5.27;;;1.90;;
71937;SDS011;59810;48.800;9.086;2022-11-20T05:44:38;6.20;;;1.63;;
71937;SDS011;59810;48.800;9.086;2022-11-20T05:47:04;8.80;;;1.60;;
71937;SDS011;59810;48.800;9.086;2022-11-20T05:49:29;4.05;;;1.52;;
71937;SDS011;59810;48.800;9.086;2022-11-20T05:51:57;5.23;;;1.60;;
71937;SDS011;59810;48.800;9.086;2022-11-20T05:54:22;5.72;;;1.80;;
71937;SDS011;59810;48.800;9.086;2022-11-20T05:56:48;4.90;;;1.70;;
71937;SDS011;59810;48.800;9.086;2022-11-20T05:59:13;5.03;;;2.00;;
71937;SDS011;59810;48.800;9.086;2022-11-20T06:01:38;6.80;;;1.63;;
71937;SDS011;59810;48.800;9.086;2022-11-20T06:04:04;4.80;;;1.70;;
71937;SDS011;59810;48.800;9.086;2022-11-20T06:06:29;6.20;;;1.70;;
71937;SDS011;59810;48.800;9.086;2022-11-20T06:08:54;4.63;;;1.63;;
71937;SDS011;59810;48.800;9.086;2022-11-20T06:11:20;4.63;;;1.60;;
71937;SDS011;59810;48.800;9.086;2022-11-20T06:13:46;4.53;;;1.38;;
71937;SDS011;59810;48.800;9.086;2022-11-20T06:16:14;6.27;;;1.73;;
71937;SDS011;59810;48.800;9.086;2022-11-20T06:18:41;4.35;;;1.40;;
71937;SDS011;59810;48.800;9.086;2022-11-20T06:21:08;5.03;;;1.80;;
71937;SDS011;59810;48.800;9.086;2022-11-20T06:23:35;4.57;;;1.50;;
71937;SDS011;59810;48.800;9.086;2022-11-20T06:26:04;4.28;;;1.17;;
71937;SDS011;59810;48.800;9.086;2022-11-20T06:28:32;5.07;;;1.40;;
71937;SDS011;59810;48.800;9.086;2022-11-20T06:31:00;5.20;;;1.88;;
71937;SDS011;59810;48.800;9.086;2022-11-20T06:33:29;7.32;;;1.42;;
71937;SDS011;59810;48.800;9.086;2022-11-20T06:35:58;5.03;;;1.60;;
71937;SDS011;59810;48.800;9.086;2022-11-20T06:38:25;5.07;;;1.70;;
71937;SDS011;59810;48.800;9.086;2022-11-20T06:40:51;5.28;;;1.38;;
71937;SDS011;59810;48.800;9.086;2022-11-20T06:43:16;5.67;;;1.57;;
71937;SDS011;59810;48.800;9.086;2022-11-20T06:45:42;3.13;;;0.90;;
71937;SDS011;59810;48.800;9.086;2022-11-20T06:48:09;5.40;;;1.57;;
71937;SDS011;59810;48.800;9.086;2022-11-20T06:50:38;3.43;;;0.93;;
71937;SDS011;59810;48.800;9.086;2022-11-20T06:53:05;4.80;;;1.40;;
71937;SDS011;59810;48.800;9.086;2022-11-20T06:55:31;4.23;;;1.30;;
71937;SDS011;59810;48.800;9.086;2022-11-20T06:57:57;5.47;;;1.30;;
71937;SDS011;59810;48.800;9.086;2022-11-20T07:00:23;5.43;;;1.33;;
71937;SDS011;59810;48.800;9.086;2022-11-20T07:02:49;3.40;;;1.10;;
71937;SDS011;59810;48.800;9.086;2022-11-20T07:05:14;4.17;;;1.50;;
71937;SDS011;59810;48.800;9.086;2022-11-20T07:07:40;4.75;;;1.50;;
71937;SDS011;59810;48.800;9.086;2022-11-20T07:10:08;4.88;;;1.10;;
71937;SDS011;59810;48.800;9.086;2022-11-20T07:12:34;4.65;;;1.10;;
71937;SDS011;59810;48.800;9.086;2022-11-20T07:14:59;3.10;;;1.00;;
71937;SDS011;59810;48.800;9.086;2022-11-20T07:17:27;4.00;;;1.23;;
71937;SDS011;59810;48.800;9.086;2022-11-20T07:19:52;4.80;;;1.00;;
71937;SDS011;59810;48.800;9.086;2022-11-20T07:22:18;5.60;;;1.30;;
71937;SDS011;59810;48.800;9.086;2022-11-20T07:24:43;4.83;;;1.20;;
71937;SDS011;59810;48.800;9.086;2022-11-20T07:27:08;4.33;;;1.20;;
71937;SDS011;59810;48.800;9.086;2022-11-20T07:29:34;5.30;;;1.40;;
71937;SDS011;59810;48.800;9.086;2022-11-20T07:31:59;6.05;;;1.60;;
71937;SDS011;59810;48.800;9.086;2022-11-20T07:34:24;5.43;;;1.77;;
71937;SDS011;59810;48.800;9.086;2022-11-20T07:36:50;6.50;;;1.80;;
71937;SDS011;59810;48.800;9.086;2022-11-20T07:39:15;3.97;;;1.23;;
71937;SDS011;59810;48.800;9.086;2022-11-20T07:41:40;3.13;;;1.10;;
71937;SDS011;59810;48.800;9.086;2022-11-20T07:44:08;2.97;;;1.08;;
71937;SDS011;59810;48.800;9.086;2022-11-20T07:46:36;3.70;;;1.10;;
71937;SDS011;59810;48.800;9.086;2022-11-20T07:49:04;4.83;;;1.40;;
71937;SDS011;59810;48.800;9.086;2022-11-20T07:51:30;3.97;;;1.02;;
71937;SDS011;59810;48.800;9.086;2022-11-20T07:53:58;4.33;;;1.30;;
71937;SDS011;59810;48.800;9.086;2022-11-20T07:56:23;4.13;;;1.15;;
71937;SDS011;59810;48.800;9.086;2022-11-20T07:58:48;5.00;;;1.13;;
71937;SDS011;59810;48.800;9.086;2022-11-20T08:01:14;6.37;;;1.30;;
71937;SDS011;59810;48.800;9.086;2022-11-20T08:03:39;3.97;;;1.10;;
71937;SDS011;59810;48.800;9.086;2022-11-20T08:06:05;4.63;;;1.53;;
71937;SDS011;59810;48.800;9.086;2022-11-20T08:08:33;6.38;;;1.77;;
71937;SDS011;59810;48.800;9.086;2022-11-20T08:11:01;4.82;;;1.58;;
71937;SDS011;59810;48.800;9.086;2022-11-20T08:13:45;4.53;;;1.27;;
71937;SDS011;59810;48.800;9.086;2022-11-20T08:16:29;5.43;;;1.75;;
71937;SDS011;59810;48.800;9.086;2022-11-20T08:18:54;3.97;;;1.40;;
71937;SDS011;59810;48.800;9.086;2022-11-20T08:21:20;3.90;;;1.40;;
71937;SDS011;59810;48.800;9.086;2022-11-20T08:23:45;3.77;;;1.13;;
71937;SDS011;59810;48.800;9.086;2022-11-20T08:26:11;4.53;;;1.48;;
71937;SDS011;59810;48.800;9.086;2022-11-20T08:28:38;6.13;;;1.50;;
71937;SDS011;59810;48.800;9.086;2022-11-20T08:31:04;5.53;;;0.90;;
71937;SDS011;59810;48.800;9.086;2022-11-20T08:33:31;3.70;;;1.02;;
71937;SDS011;59810;48.800;9.086;2022-11-20T08:36:04;5.63;;;1.58;;
71937;SDS011;59810;48.800;9.086;2022-11-20T08:38:30;5.88;;;1.85;;
71937;SDS011;59810;48.800;9.086;2022-11-20T08:40:57;2.95;;;0.80;;
71937;SDS011;59810;48.800;9.086;2022-11-20T08:43:42;3.57;;;0.97;;
71937;SDS011;59810;48.800;9.086;2022-11-20T08:46:10;4.57;;;1.10;;
71937;SDS011;59810;48.800;9.086;2022-11-20T08:48:38;3.25;;;0.68;;
71937;SDS011;59810;48.800;9.086;2022-11-20T08:51:03;3.37;;;0.83;;
71937;SDS011;59810;48.800;9.086;2022-11-20T08:53:28;2.73;;;0.70;;
71937;SDS011;59810;48.800;9.086;2022-11-20T08:55:59;2.77;;;0.60;;
71937;SDS011;59810;48.800;9.086;2022-11-20T08:58:25;2.00;;;0.70;;
71937;SDS011;59810;48.800;9.086;2022-11-20T09:00:51;2.42;;;0.57;;
71937;SDS011;59810;48.800;9.086;2022-11-20T09:03:16;3.67;;;0.60;;
71937;SDS011;59810;48.800;9.086;2022-11-20T09:05:41;2.63;;;0.60;;
71937;SDS011;59810;48.800;9.086;2022-11-20T09:08:11;2.47;;;0.60;;
71937;SDS011;59810;48.800;9.086;2022-11-20T09:10:37;1.10;;;0.50;;
71937;SDS011;59810;48.800;9.086;2022-11-20T09:13:04;2.25;;;0.60;;
71937;SDS011;59810;48.800;9.086;2022-11-20T09:15:30;2.77;;;0.50;;
71937;SDS011;59810;48.800;9.086;2022-11-20T09:17:56;3.13;;;0.73;;
71937;SDS011;59810;48.800;9.086;2022-11-20T09:20:23;2.05;;;0.43;;
71937;SDS011;59810;48.800;9.086;2022-11-20T09:22:49;1.42;;;0.50;;
71937;SDS011;59810;48.800;9.086;2022-11-20T09:25:15;3.93;;;1.07;;
71937;SDS011;59810;48.800;9.086;2022-11-20T09:27:41;2.83;;;0.80;;
71937;SDS011;59810;48.800;9.086;2022-11-20T09:30:11;1.48;;;0.40;;
71937;SDS011;59810;48.800;9.086;2022-11-20T09:32:40;2.27;;;0.70;;
71937;SDS011;59810;48.800;9.086;2022-11-20T09:35:06;2.65;;;0.57;;
71937;SDS011;59810;48.800;9.086;2022-11-20T09:37:33;3.83;;;0.73;;
71937;SDS011;59810;48.800;9.086;2022-11-20T09:39:58;1.97;;;0.50;;
71937;SDS011;59810;48.800;9.086;2022-11-20T09:42:35;3.17;;;0.63;;
71937;SDS011;59810;48.800;9.086;2022-11-20T09:45:13;2.30;;;0.40;;
71937;SDS011;59810;48.800;9.086;2022-11-20T09:53:25;2.00;;;0.45;;
71937;SDS011;59810;48.800;9.086;2022-11-20T09:55:53;3.05;;;0.80;;
71937;SDS011;59810;48.800;9.086;2022-11-20T10:01:26;1.17;;;0.38;;
71937;SDS011;59810;48.800;9.086;2022-11-20T10:09:01;1.00;;;0.38;;
71937;SDS011;59810;48.800;9.086;2022-11-20T10:11:42;1.43;;;0.50;;
71937;SDS011;59810;48.800;9.086;2022-11-20T10:23:23;2.78;;;0.52;;
71937;SDS011;59810;48.800;9.086;2022-11-20T10:26:00;3.83;;;0.80;;
71937;SDS011;59810;48.800;9.086;2022-11-20T10:28:30;2.70;;;0.60;;
71937;SDS011;59810;48.800;9.086;2022-11-20T10:31:11;2.67;;;0.82;;
71937;SDS011;59810;48.800;9.086;2022-11-20T10:33:42;3.70;;;0.82;;
71937;SDS011;59810;48.800;9.086;2022-11-20T10:36:19;2.55;;;0.70;;
71937;SDS011;59810;48.800;9.086;2022-11-20T10:41:30;2.78;;;0.70;;
71937;SDS011;59810;48.800;9.086;2022-11-20T10:47:05;4.53;;;0.77;;
71937;SDS011;59810;48.800;9.086;2022-11-20T10:49:38;3.30;;;0.80;;
71937;SDS011;59810;48.800;9.086;2022-11-20T11:00:40;2.88;;;0.90;;
71937;SDS011;59810;48.800;9.086;2022-11-20T11:03:25;4.67;;;0.77;;
71937;SDS011;59810;48.800;9.086;2022-11-20T11:05:59;3.70;;;0.85;;
71937;SDS011;59810;48.800;9.086;2022-11-20T11:08:45;2.60;;;0.82;;
71937;SDS011;59810;48.800;9.086;2022-11-20T11:11:21;2.50;;;0.57;;
71937;SDS011;59810;48.800;9.086;2022-11-20T11:13:53;3.00;;;0.70;;
71937;SDS011;59810;48.800;9.086;2022-11-20T11:16:31;3.07;;;0.90;;
71937;SDS011;59810;48.800;9.086;2022-11-20T11:19:06;3.05;;;0.80;;
71937;SDS011;59810;48.800;9.086;2022-11-20T11:21:49;3.47;;;0.80;;
71937;SDS011;59810;48.800;9.086;2022-11-20T11:24:21;4.50;;;1.17;;
71937;SDS011;59810;48.800;9.086;2022-11-20T11:26:52;4.60;;;1.30;;
71937;SDS011;59810;48.800;9.086;2022-11-20T11:29:22;5.33;;;1.27;;
71937;SDS011;59810;48.800;9.086;2022-11-20T11:31:48;5.55;;;1.30;;
71937;SDS011;59810;48.800;9.086;2022-11-20T11:34:15;5.82;;;1.90;;
71937;SDS011;59810;48.800;9.086;2022-11-20T11:36:41;3.60;;;1.20;;
71937;SDS011;59810;48.800;9.086;2022-11-20T11:39:14;3.83;;;1.27;;
71937;SDS011;59810;48.800;9.086;2022-11-20T11:41:42;4.28;;;1.30;;
71937;SDS011;59810;48.800;9.086;2022-11-20T11:47:10;5.65;;;1.15;;
71937;SDS011;59810;48.800;9.086;2022-11-20T11:49:47;4.43;;;1.20;;
71937;SDS011;59810;48.800;9.086;2022-11-20T11:54:58;8.80;;;2.20;;
71937;SDS011;59810;48.800;9.086;2022-11-20T11:57:34;4.43;;;1.27;;
71937;SDS011;59810;48.800;9.086;2022-11-20T12:00:12;4.80;;;1.00;;
71937;SDS011;59810;48.800;9.086;2022-11-20T12:05:26;4.93;;;1.30;;
71937;SDS011;59810;48.800;9.086;2022-11-20T12:13:01;5.03;;;1.05;;
71937;SDS011;59810;48.800;9.086;2022-11-20T12:15:36;4.35;;;1.25;;
71937;SDS011;59810;48.800;9.086;2022-11-20T12:18:10;4.67;;;0.87;;
71937;SDS011;59810;48.800;9.086;2022-11-20T12:20:42;5.63;;;0.70;;
71937;SDS011;59810;48.800;9.086;2022-11-20T12:26:02;9.50;;;2.90;;
71937;SDS011;59810;48.800;9.086;2022-11-20T12:28:41;10.40;;;2.20;;
71937;SDS011;59810;48.800;9.086;2022-11-20T12:34:12;5.30;;;1.30;;
71937;SDS011;59810;48.800;9.086;2022-11-20T12:37:04;9.38;;;2.83;;
71937;SDS011;59810;48.800;9.086;2022-11-20T12:39:48;16.63;;;5.47;;
71937;SDS011;59810;48.800;9.086;2022-11-20T12:48:33;3.38;;;1.15;;
71937;SDS011;59810;48.800;9.086;2022-11-20T12:56:57;3.63;;;0.68;;
71937;SDS011;59810;48.800;9.086;2022-11-20T13:02:25;3.55;;;0.63;;
71937;SDS011;59810;48.800;9.086;2022-11-20T13:07:51;3.75;;;0.82;;
71937;SDS011;59810;48.800;9.086;2022-11-20T13:13:22;2.30;;;0.70;;
71937;SDS011;59810;48.800;9.086;2022-11-20T13:16:00;1.75;;;0.47;;
71937;SDS011;59810;48.800;9.086;2022-11-20T13:18:37;3.60;;;0.63;;
71937;SDS011;59810;48.800;9.086;2022-11-20T13:21:21;3.83;;;0.60;;
71937;SDS011;59810;48.800;9.086;2022-11-20T13:26:43;1.77;;;0.40;;
71937;SDS011;59810;48.800;9.086;2022-11-20T13:29:11;3.42;;;0.55;;
71937;SDS011;59810;48.800;9.086;2022-11-20T13:31:43;3.55;;;0.60;;
71937;SDS011;59810;48.800;9.086;2022-11-20T13:34:13;2.70;;;0.50;;
71937;SDS011;59810;48.800;9.086;2022-11-20T13:36:51;7.75;;;0.70;;
71937;SDS011;59810;48.800;9.086;2022-11-20T13:39:24;4.05;;;0.57;;
71937;SDS011;59810;48.800;9.086;2022-11-20T13:42:01;3.08;;;0.65;;
71937;SDS011;59810;48.800;9.086;2022-11-20T13:44:35;2.55;;;0.43;;
71937;SDS011;59810;48.800;9.086;2022-11-20T13:47:03;3.50;;;0.57;;
71937;SDS011;59810;48.800;9.086;2022-11-20T13:49:44;2.20;;;0.50;;
71937;SDS011;59810;48.800;9.086;2022-11-20T13:57:40;3.10;;;0.55;;
71937;SDS011;59810;48.800;9.086;2022-11-20T14:00:16;2.20;;;0.65;;
71937;SDS011;59810;48.800;9.086;2022-11-20T14:02:43;6.13;;;1.50;;
71937;SDS011;59810;48.800;9.086;2022-11-20T14:05:17;1.45;;;0.35;;
71937;SDS011;59810;48.800;9.086;2022-11-20T14:07:46;2.73;;;0.40;;
71937;SDS011;59810;48.800;9.086;2022-11-20T14:10:20;1.90;;;0.50;;
71937;SDS011;59810;48.800;9.086;2022-11-20T14:12:54;8.10;;;1.42;;
71937;SDS011;59810;48.800;9.086;2022-11-20T14:15:24;3.00;;;0.57;;
71937;SDS011;59810;48.800;9.086;2022-11-20T14:17:54;3.83;;;0.70;;
71937;SDS011;59810;48.800;9.086;2022-11-20T14:20:23;2.58;;;0.70;;
71937;SDS011;59810;48.800;9.086;2022-11-20T14:22:52;2.75;;;0.60;;
71937;SDS011;59810;48.800;9.086;2022-11-20T14:25:20;2.67;;;0.60;;
71937;SDS011;59810;48.800;9.086;2022-11-20T14:27:57;2.78;;;0.60;;
71937;SDS011;59810;48.800;9.086;2022-11-20T14:30:26;2.97;;;0.60;;
71937;SDS011;59810;48.800;9.086;2022-11-20T14:32:55;3.88;;;0.90;;
71937;SDS011;59810;48.800;9.086;2022-11-20T14:38:00;2.97;;;0.68;;
71937;SDS011;59810;48.800;9.086;2022-11-20T14:42:57;5.00;;;0.83;;
71937;SDS011;59810;48.800;9.086;2022-11-20T14:45:24;6.22;;;1.38;;
71937;SDS011;59810;48.800;9.086;2022-11-20T14:47:53;3.15;;;0.63;;
71937;SDS011;59810;48.800;9.086;2022-11-20T14:50:25;1.30;;;0.45;;
71937;SDS011;59810;48.800;9.086;2022-11-20T14:52:53;2.53;;;0.57;;
71937;SDS011;59810;48.800;9.086;2022-11-20T14:55:27;2.60;;;0.50;;
71937;SDS011;59810;48.800;9.086;2022-11-20T14:58:20;2.22;;;0.43;;
71937;SDS011;59810;48.800;9.086;2022-11-20T15:03:21;3.50;;;0.60;;
71937;SDS011;59810;48.800;9.086;2022-11-20T15:05:47;2.07;;;0.60;;
71937;SDS011;59810;48.800;9.086;2022-11-20T15:08:14;2.30;;;0.60;;
71937;SDS011;59810;48.800;9.086;2022-11-20T15:10:46;2.30;;;0.70;;
71937;SDS011;59810;48.800;9.086;2022-11-20T15:13:16;2.05;;;0.45;;
71937;SDS011;59810;48.800;9.086;2022-11-20T15:15:46;3.25;;;0.70;;
71937;SDS011;59810;48.800;9.086;2022-11-20T15:18:14;2.63;;;0.60;;
71937;SDS011;59810;48.800;9.086;2022-11-20T15:20:43;3.35;;;0.70;;
71937;SDS011;59810;48.800;9.086;2022-11-20T15:23:12;4.35;;;0.90;;
71937;SDS011;59810;48.800;9.086;2022-11-20T15:25:39;4.70;;;0.90;;
71937;SDS011;59810;48.800;9.086;2022-11-20T15:28:11;5.18;;;1.13;;
71937;SDS011;59810;48.800;9.086;2022-11-20T15:30:44;3.25;;;0.80;;
71937;SDS011;59810;48.800;9.086;2022-11-20T15:33:10;5.60;;;2.00;;
71937;SDS011;59810;48.800;9.086;2022-11-20T15:35:39;27.60;;;10.98;;
71937;SDS011;59810;48.800;9.086;2022-11-20T15:38:04;6.30;;;2.37;;
71937;SDS011;59810;48.800;9.086;2022-11-20T15:40:32;3.42;;;0.73;;
71937;SDS011;59810;48.800;9.086;2022-11-20T15:42:57;3.20;;;0.73;;
71937;SDS011;59810;48.800;9.086;2022-11-20T15:45:45;3.97;;;1.40;;
71937;SDS011;59810;48.800;9.086;2022-11-20T15:48:23;3.80;;;1.10;;
71937;SDS011;59810;48.800;9.086;2022-11-20T15:53:24;4.60;;;0.98;;
71937;SDS011;59810;48.800;9.086;2022-11-20T15:55:50;5.17;;;2.20;;
71937;SDS011;59810;48.800;9.086;2022-11-20T15:58:15;6.82;;;2.47;;
71937;SDS011;59810;48.800;9.086;2022-11-20T16:00:42;6.57;;;2.38;;
71937;SDS011;59810;48.800;9.086;2022-11-20T16:03:13;5.47;;;2.20;;
71937;SDS011;59810;48.800;9.086;2022-11-20T16:05:39;4.65;;;1.00;;
71937;SDS011;59810;48.800;9.086;2022-11-20T16:08:05;5.38;;;1.42;;
71937;SDS011;59810;48.800;9.086;2022-11-20T16:10:33;3.80;;;1.10;;
71937;SDS011;59810;48.800;9.086;2022-11-20T16:12:59;3.75;;;1.02;;
71937;SDS011;59810;48.800;9.086;2022-11-20T16:15:44;4.82;;;1.50;;
71937;SDS011;59810;48.800;9.086;2022-11-20T16:18:18;5.82;;;1.63;;
71937;SDS011;59810;48.800;9.086;2022-11-20T16:20:45;4.25;;;1.25;;
71937;SDS011;59810;48.800;9.086;2022-11-20T16:23:12;4.17;;;1.20;;
71937;SDS011;59810;48.800;9.086;2022-11-20T16:25:38;3.38;;;1.15;;
71937;SDS011;59810;48.800;9.086;2022-11-20T16:28:06;4.97;;;1.10;;
71937;SDS011;59810;48.800;9.086;2022-11-20T16:30:35;3.78;;;1.38;;
71937;SDS011;59810;48.800;9.086;2022-11-20T16:33:01;5.03;;;1.83;;
71937;SDS011;59810;48.800;9.086;2022-11-20T16:35:27;3.67;;;1.17;;
71937;SDS011;59810;48.800;9.086;2022-11-20T16:37:57;4.13;;;1.40;;
71937;SDS011;59810;48.800;9.086;2022-11-20T16:40:26;4.72;;;1.30;;
71937;SDS011;59810;48.800;9.086;2022-11-20T16:42:51;4.80;;;1.40;;
71937;SDS011;59810;48.800;9.086;2022-11-20T16:45:17;3.90;;;1.20;;
71937;SDS011;59810;48.800;9.086;2022-11-20T16:47:43;6.65;;;1.40;;
71937;SDS011;59810;48.800;9.086;2022-11-20T16:50:11;4.25;;;1.40;;